sensor_id;sensor_type;location;lat;lon;timestamp;temperature;humidity
4081;DHT22;2055;50.074;8.436;2022-12-18T00:01:45;-7.30;99.90
4081;DHT22;2055;50.074;8.436;2022-12-18T00:04:19;-7.30;99.90
4081;DHT22;2055;50.074;8.436;2022-12-18T00:06:45;-7.30;99.90
4081;DHT22;2055;50.074;8.436;2022-12-18T00:09:11;-7.30;99.90
4081;DHT22;2055;50.074;8.436;2022-12-18T00:11:36;-7.40;99.90
4081;DHT22;2055;50.074;8.436;2022-12-18T00:14:02;-7.50;99.90
4081;DHT22;2055;50.074;8.436;2022-12-18T00:16:28;-7.60;99.90
4081;DHT22;2055;50.074;8.436;2022-12-18T00:18:56;-7.70;99.90
4081;DHT22;2055;50.074;8.436;2022-12-18T00:21:22;-7.70;99.90
4081;DHT22;2055;50.074;8.436;2022-12-18T00:23:48;-7.80;99.90
4081;DHT22;2055;50.074;8.436;2022-12-18T00:26:26;-7.70;99.90
4081;DHT22;2055;50.074;8.436;2022-12-18T00:28:52;-7.90;99.90
4081;DHT22;2055;50.074;8.436;2022-12-18T00:31:20;-7.80;99.90
4081;DHT22;2055;50.074;8.436;2022-12-18T00:33:46;-7.80;99.90
4081;DHT22;2055;50.074;8.436;2022-12-18T00:36:15;-7.80;99.90
4081;DHT22;2055;50.074;8.436;2022-12-18T00:38:41;-7.90;99.90
4081;DHT22;2055;50.074;8.436;2022-12-18T00:41:08;-7.90;99.90
4081;DHT22;2055;50.074;8.436;2022-12-18T00:43:34;-8.00;99.90
4081;DHT22;2055;50.074;8.436;2022-12-18T00:46:00;-7.90;99.90
4081;DHT22;2055;50.074;8.436;2022-12-18T00:48:25;-7.90;99.90
4081;DHT22;2055;50.074;8.436;2022-12-18T00:50:51;-7.90;99.90
4081;DHT22;2055;50.074;8.436;2022-12-18T00:53:17;-7.80;99.90
4081;DHT22;2055;50.074;8.436;2022-12-18T00:55:43;-7.70;99.90
4081;DHT22;2055;50.074;8.436;2022-12-18T00:58:10;-7.80;99.90
4081;DHT22;2055;50.074;8.436;2022-12-18T01:00:36;-7.90;99.90
4081;DHT22;2055;50.074;8.436;2022-12-18T01:03:02;-7.90;99.90
4081;DHT22;2055;50.074;8.436;2022-12-18T01:05:28;-7.90;99.90
4081;DHT22;2055;50.074;8.436;2022-12-18T01:10:19;-8.00;99.90
4081;DHT22;2055;50.074;8.436;2022-12-18T01:12:45;-8.00;99.90
4081;DHT22;2055;50.074;8.436;2022-12-18T01:15:12;-8.00;99.90
4081;DHT22;2055;50.074;8.436;2022-12-18T01:17:38;-8.00;99.90
4081;DHT22;2055;50.074;8.436;2022-12-18T01:20:04;-8.00;99.90
4081;DHT22;2055;50.074;8.436;2022-12-18T01:22:30;-8.00;99.90
4081;DHT22;2055;50.074;8.436;2022-12-18T01:24:55;-8.00;99.90
4081;DHT22;2055;50.074;8.436;2022-12-18T01:27:21;-8.00;99.90
4081;DHT22;2055;50.074;8.436;2022-12-18T01:29:47;-8.10;99.90
4081;DHT22;2055;50.074;8.436;2022-12-18T01:32:12;-5.10;99.90
4081;DHT22;2055;50.074;8.436;2022-12-18T01:34:38;-8.00;99.90
4081;DHT22;2055;50.074;8.436;2022-12-18T01:37:06;-8.30;99.90
4081;DHT22;2055;50.074;8.436;2022-12-18T01:39:32;-9.20;99.90
4081;DHT22;2055;50.074;8.436;2022-12-18T01:41:59;-8.00;99.90
4081;DHT22;2055;50.074;8.436;2022-12-18T01:44:54;-8.00;99.90
4081;DHT22;2055;50.074;8.436;2022-12-18T01:50:06;-8.00;99.90
4081;DHT22;2055;50.074;8.436;2022-12-18T01:52:32;-8.10;99.90
4081;DHT22;2055;50.074;8.436;2022-12-18T01:54:59;-8.00;99.90
4081;DHT22;2055;50.074;8.436;2022-12-18T01:57:26;-8.10;99.90
4081;DHT22;2055;50.074;8.436;2022-12-18T01:59:53;-8.10;99.90
4081;DHT22;2055;50.074;8.436;2022-12-18T02:02:21;-8.00;99.90
4081;DHT22;2055;50.074;8.436;2022-12-18T02:04:46;-8.00;99.90
4081;DHT22;2055;50.074;8.436;2022-12-18T02:07:23;-8.00;99.90
4081;DHT22;2055;50.074;8.436;2022-12-18T02:10:02;-8.00;99.90
4081;DHT22;2055;50.074;8.436;2022-12-18T02:15:34;-8.00;99.90
4081;DHT22;2055;50.074;8.436;2022-12-18T02:18:08;-8.00;99.90
4081;DHT22;2055;50.074;8.436;2022-12-18T02:20:50;-7.90;99.90
4081;DHT22;2055;50.074;8.436;2022-12-18T02:29:03;-7.80;99.90
4081;DHT22;2055;50.074;8.436;2022-12-18T02:31:36;-7.60;99.90
4081;DHT22;2055;50.074;8.436;2022-12-18T02:34:06;-7.60;99.90
4081;DHT22;2055;50.074;8.436;2022-12-18T02:36:33;-7.60;99.90
4081;DHT22;2055;50.074;8.436;2022-12-18T02:39:01;-7.60;99.90
4081;DHT22;2055;50.074;8.436;2022-12-18T02:41:28;-7.50;99.90
4081;DHT22;2055;50.074;8.436;2022-12-18T02:43:57;-7.30;99.90
4081;DHT22;2055;50.074;8.436;2022-12-18T02:46:28;-7.40;99.90
4081;DHT22;2055;50.074;8.436;2022-12-18T02:49:01;-7.20;99.90
4081;DHT22;2055;50.074;8.436;2022-12-18T02:51:39;-7.30;99.90
4081;DHT22;2055;50.074;8.436;2022-12-18T02:54:21;-7.60;99.90
4081;DHT22;2055;50.074;8.436;2022-12-18T02:56:53;-7.70;99.90
4081;DHT22;2055;50.074;8.436;2022-12-18T02:59:25;-7.70;99.90
4081;DHT22;2055;50.074;8.436;2022-12-18T03:02:01;-7.80;99.90
4081;DHT22;2055;50.074;8.436;2022-12-18T03:04:35;-7.80;99.90
4081;DHT22;2055;50.074;8.436;2022-12-18T03:07:07;-7.90;99.90
4081;DHT22;2055;50.074;8.436;2022-12-18T03:09:36;-7.80;99.90
4081;DHT22;2055;50.074;8.436;2022-12-18T03:12:10;-7.80;99.90
4081;DHT22;2055;50.074;8.436;2022-12-18T03:15:00;-7.50;99.90
4081;DHT22;2055;50.074;8.436;2022-12-18T03:17:31;-7.10;99.90
4081;DHT22;2055;50.074;8.436;2022-12-18T03:20:00;-6.90;99.90
4081;DHT22;2055;50.074;8.436;2022-12-18T03:22:30;-6.70;99.90
4081;DHT22;2055;50.074;8.436;2022-12-18T03:24:56;-6.70;99.90
4081;DHT22;2055;50.074;8.436;2022-12-18T03:27:24;-6.50;99.90
4081;DHT22;2055;50.074;8.436;2022-12-18T03:30:04;-6.30;99.90
4081;DHT22;2055;50.074;8.436;2022-12-18T03:32:38;-6.30;99.90
4081;DHT22;2055;50.074;8.436;2022-12-18T03:35:07;-6.30;99.90
4081;DHT22;2055;50.074;8.436;2022-12-18T03:37:33;-6.10;99.90
4081;DHT22;2055;50.074;8.436;2022-12-18T03:39:59;-6.00;99.90
4081;DHT22;2055;50.074;8.436;2022-12-18T03:45:26;-6.00;99.90
4081;DHT22;2055;50.074;8.436;2022-12-18T03:50:34;-5.70;99.90
4081;DHT22;2055;50.074;8.436;2022-12-18T03:53:31;-5.50;99.90
4081;DHT22;2055;50.074;8.436;2022-12-18T03:56:00;-5.70;99.90
4081;DHT22;2055;50.074;8.436;2022-12-18T03:58:27;-5.50;99.90
4081;DHT22;2055;50.074;8.436;2022-12-18T04:00:56;-5.60;99.90
4081;DHT22;2055;50.074;8.436;2022-12-18T04:03:25;-5.70;99.90
4081;DHT22;2055;50.074;8.436;2022-12-18T04:05:53;-5.80;99.90
4081;DHT22;2055;50.074;8.436;2022-12-18T04:08:21;-5.80;99.90
4081;DHT22;2055;50.074;8.436;2022-12-18T04:10:47;-5.90;99.90
4081;DHT22;2055;50.074;8.436;2022-12-18T04:13:13;-6.00;99.90
4081;DHT22;2055;50.074;8.436;2022-12-18T04:15:46;-5.90;99.90
4081;DHT22;2055;50.074;8.436;2022-12-18T04:18:12;-6.00;99.90
4081;DHT22;2055;50.074;8.436;2022-12-18T04:20:37;-5.90;99.90
4081;DHT22;2055;50.074;8.436;2022-12-18T04:23:03;-5.80;99.90
4081;DHT22;2055;50.074;8.436;2022-12-18T04:25:28;-5.90;99.90
4081;DHT22;2055;50.074;8.436;2022-12-18T04:27:54;-5.80;99.90
4081;DHT22;2055;50.074;8.436;2022-12-18T04:30:19;-5.80;99.90
4081;DHT22;2055;50.074;8.436;2022-12-18T04:32:45;-5.80;99.90
4081;DHT22;2055;50.074;8.436;2022-12-18T04:35:10;-5.90;99.90
4081;DHT22;2055;50.074;8.436;2022-12-18T04:37:37;-3.00;99.90
4081;DHT22;2055;50.074;8.436;2022-12-18T04:40:02;-5.60;99.90
4081;DHT22;2055;50.074;8.436;2022-12-18T04:42:28;-5.60;99.90
4081;DHT22;2055;50.074;8.436;2022-12-18T04:44:54;-5.70;99.90
4081;DHT22;2055;50.074;8.436;2022-12-18T04:47:19;-5.70;99.90
4081;DHT22;2055;50.074;8.436;2022-12-18T04:49:45;-5.70;99.90
4081;DHT22;2055;50.074;8.436;2022-12-18T04:52:10;-5.60;99.90
4081;DHT22;2055;50.074;8.436;2022-12-18T04:54:36;-5.40;99.90
4081;DHT22;2055;50.074;8.436;2022-12-18T04:57:01;-5.60;99.90
4081;DHT22;2055;50.074;8.436;2022-12-18T04:59:27;-5.60;99.90
4081;DHT22;2055;50.074;8.436;2022-12-18T05:01:52;-5.60;99.90
4081;DHT22;2055;50.074;8.436;2022-12-18T05:04:18;-5.60;99.90
4081;DHT22;2055;50.074;8.436;2022-12-18T05:06:43;-5.70;99.90
4081;DHT22;2055;50.074;8.436;2022-12-18T05:09:09;-5.70;99.90
4081;DHT22;2055;50.074;8.436;2022-12-18T05:11:36;-5.80;99.90
4081;DHT22;2055;50.074;8.436;2022-12-18T05:14:02;-5.70;99.90
4081;DHT22;2055;50.074;8.436;2022-12-18T05:16:27;-5.70;99.90
4081;DHT22;2055;50.074;8.436;2022-12-18T05:18:53;-5.90;99.90
4081;DHT22;2055;50.074;8.436;2022-12-18T05:21:18;-5.80;99.90
4081;DHT22;2055;50.074;8.436;2022-12-18T05:23:44;-5.90;99.90
4081;DHT22;2055;50.074;8.436;2022-12-18T05:26:15;-5.70;99.90
4081;DHT22;2055;50.074;8.436;2022-12-18T05:28:40;-5.60;99.90
4081;DHT22;2055;50.074;8.436;2022-12-18T05:31:06;-5.40;99.90
4081;DHT22;2055;50.074;8.436;2022-12-18T05:33:34;-5.40;99.90
4081;DHT22;2055;50.074;8.436;2022-12-18T05:36:01;-5.30;99.90
4081;DHT22;2055;50.074;8.436;2022-12-18T05:38:27;-5.30;99.90
4081;DHT22;2055;50.074;8.436;2022-12-18T05:40:53;-5.40;99.90
4081;DHT22;2055;50.074;8.436;2022-12-18T05:43:20;-5.50;99.90
4081;DHT22;2055;50.074;8.436;2022-12-18T05:45:50;-5.60;99.90
4081;DHT22;2055;50.074;8.436;2022-12-18T05:48:16;-5.60;99.90
4081;DHT22;2055;50.074;8.436;2022-12-18T05:50:43;-5.60;99.90
4081;DHT22;2055;50.074;8.436;2022-12-18T05:53:11;-5.60;99.90
4081;DHT22;2055;50.074;8.436;2022-12-18T05:55:39;-5.60;99.90
4081;DHT22;2055;50.074;8.436;2022-12-18T05:58:06;-5.50;99.90
4081;DHT22;2055;50.074;8.436;2022-12-18T06:00:34;-6.40;99.90
4081;DHT22;2055;50.074;8.436;2022-12-18T06:03:00;-6.70;99.90
4081;DHT22;2055;50.074;8.436;2022-12-18T06:05:26;-6.90;99.90
4081;DHT22;2055;50.074;8.436;2022-12-18T06:07:52;-7.20;99.90
4081;DHT22;2055;50.074;8.436;2022-12-18T06:10:17;-7.20;99.90
4081;DHT22;2055;50.074;8.436;2022-12-18T06:12:43;-7.30;99.90
4081;DHT22;2055;50.074;8.436;2022-12-18T06:15:09;-7.40;99.90
4081;DHT22;2055;50.074;8.436;2022-12-18T06:17:35;-7.40;99.90
4081;DHT22;2055;50.074;8.436;2022-12-18T06:20:00;-7.40;99.90
4081;DHT22;2055;50.074;8.436;2022-12-18T06:22:27;-7.40;99.90
4081;DHT22;2055;50.074;8.436;2022-12-18T06:24:52;-7.30;99.90
4081;DHT22;2055;50.074;8.436;2022-12-18T06:27:18;-7.10;99.90
4081;DHT22;2055;50.074;8.436;2022-12-18T06:29:43;-7.20;99.90
4081;DHT22;2055;50.074;8.436;2022-12-18T06:32:09;-7.00;99.90
4081;DHT22;2055;50.074;8.436;2022-12-18T06:34:37;-6.90;99.90
4081;DHT22;2055;50.074;8.436;2022-12-18T06:37:02;-6.70;99.90
4081;DHT22;2055;50.074;8.436;2022-12-18T06:39:28;-6.80;99.90
4081;DHT22;2055;50.074;8.436;2022-12-18T06:41:54;-6.80;99.90
4081;DHT22;2055;50.074;8.436;2022-12-18T06:44:19;-6.70;99.90
4081;DHT22;2055;50.074;8.436;2022-12-18T06:46:45;-6.60;99.90
4081;DHT22;2055;50.074;8.436;2022-12-18T06:49:11;-6.70;99.90
4081;DHT22;2055;50.074;8.436;2022-12-18T06:51:36;-6.60;99.90
4081;DHT22;2055;50.074;8.436;2022-12-18T06:54:02;-6.50;99.90
4081;DHT22;2055;50.074;8.436;2022-12-18T06:56:28;-6.30;99.90
4081;DHT22;2055;50.074;8.436;2022-12-18T06:58:53;-6.30;99.90
4081;DHT22;2055;50.074;8.436;2022-12-18T07:01:20;-6.30;99.90
4081;DHT22;2055;50.074;8.436;2022-12-18T07:03:45;-6.20;99.90
4081;DHT22;2055;50.074;8.436;2022-12-18T07:06:16;-6.10;99.90
4081;DHT22;2055;50.074;8.436;2022-12-18T07:08:43;-6.20;99.90
4081;DHT22;2055;50.074;8.436;2022-12-18T07:11:08;-6.30;99.90
4081;DHT22;2055;50.074;8.436;2022-12-18T07:13:34;-6.30;99.90
4081;DHT22;2055;50.074;8.436;2022-12-18T07:16:10;-6.30;99.90
4081;DHT22;2055;50.074;8.436;2022-12-18T07:18:36;-6.20;99.90
4081;DHT22;2055;50.074;8.436;2022-12-18T07:21:04;-6.30;99.90
4081;DHT22;2055;50.074;8.436;2022-12-18T07:23:31;-6.20;99.90
4081;DHT22;2055;50.074;8.436;2022-12-18T07:26:03;-6.30;99.90
4081;DHT22;2055;50.074;8.436;2022-12-18T07:28:29;-6.40;99.90
4081;DHT22;2055;50.074;8.436;2022-12-18T07:30:55;-6.30;99.90
4081;DHT22;2055;50.074;8.436;2022-12-18T07:33:21;-6.30;99.90
4081;DHT22;2055;50.074;8.436;2022-12-18T07:35:46;-6.20;99.90
4081;DHT22;2055;50.074;8.436;2022-12-18T07:38:12;-6.10;99.90
4081;DHT22;2055;50.074;8.436;2022-12-18T07:40:37;-6.00;99.90
4081;DHT22;2055;50.074;8.436;2022-12-18T07:43:03;-6.10;99.90
4081;DHT22;2055;50.074;8.436;2022-12-18T07:45:28;-6.10;99.90
4081;DHT22;2055;50.074;8.436;2022-12-18T07:47:53;-6.10;99.90
4081;DHT22;2055;50.074;8.436;2022-12-18T07:50:19;-6.10;99.90
4081;DHT22;2055;50.074;8.436;2022-12-18T07:52:44;-6.10;99.90
4081;DHT22;2055;50.074;8.436;2022-12-18T07:55:10;-6.10;99.90
4081;DHT22;2055;50.074;8.436;2022-12-18T07:57:35;-5.90;99.90
4081;DHT22;2055;50.074;8.436;2022-12-18T08:00:01;-5.90;99.90
4081;DHT22;2055;50.074;8.436;2022-12-18T08:02:26;-5.90;99.90
4081;DHT22;2055;50.074;8.436;2022-12-18T08:04:55;-5.90;99.90
4081;DHT22;2055;50.074;8.436;2022-12-18T08:07:20;-5.90;99.90
4081;DHT22;2055;50.074;8.436;2022-12-18T08:09:46;-5.90;99.90
4081;DHT22;2055;50.074;8.436;2022-12-18T08:12:11;-5.80;99.90
4081;DHT22;2055;50.074;8.436;2022-12-18T08:14:37;-5.50;99.90
4081;DHT22;2055;50.074;8.436;2022-12-18T08:17:02;-5.80;99.90
4081;DHT22;2055;50.074;8.436;2022-12-18T08:19:28;-5.70;99.90
4081;DHT22;2055;50.074;8.436;2022-12-18T08:21:53;-5.60;99.90
4081;DHT22;2055;50.074;8.436;2022-12-18T08:24:19;-5.50;99.90
4081;DHT22;2055;50.074;8.436;2022-12-18T08:26:44;-5.50;99.90
4081;DHT22;2055;50.074;8.436;2022-12-18T08:29:10;-5.50;99.90
4081;DHT22;2055;50.074;8.436;2022-12-18T08:31:36;-5.50;99.90
4081;DHT22;2055;50.074;8.436;2022-12-18T08:34:02;-5.60;99.90
4081;DHT22;2055;50.074;8.436;2022-12-18T08:36:27;-5.60;99.90
4081;DHT22;2055;50.074;8.436;2022-12-18T08:38:53;-5.70;99.90
4081;DHT22;2055;50.074;8.436;2022-12-18T08:41:19;-5.80;99.90
4081;DHT22;2055;50.074;8.436;2022-12-18T08:43:45;-5.80;99.90
4081;DHT22;2055;50.074;8.436;2022-12-18T08:46:36;-5.80;99.90
4081;DHT22;2055;50.074;8.436;2022-12-18T08:49:03;-5.70;99.90
4081;DHT22;2055;50.074;8.436;2022-12-18T08:51:29;-5.70;99.90
4081;DHT22;2055;50.074;8.436;2022-12-18T08:53:54;-5.60;99.90
4081;DHT22;2055;50.074;8.436;2022-12-18T08:56:20;-5.50;99.90
4081;DHT22;2055;50.074;8.436;2022-12-18T08:58:45;-5.40;99.90
4081;DHT22;2055;50.074;8.436;2022-12-18T09:01:12;-5.40;99.90
4081;DHT22;2055;50.074;8.436;2022-12-18T09:03:39;-5.30;99.90
4081;DHT22;2055;50.074;8.436;2022-12-18T09:06:05;-5.20;99.90
4081;DHT22;2055;50.074;8.436;2022-12-18T09:08:34;-5.10;99.90
4081;DHT22;2055;50.074;8.436;2022-12-18T09:11:00;-5.00;99.90
4081;DHT22;2055;50.074;8.436;2022-12-18T09:13:25;-5.00;99.90
4081;DHT22;2055;50.074;8.436;2022-12-18T09:15:53;-5.00;99.90
4081;DHT22;2055;50.074;8.436;2022-12-18T09:18:21;-4.90;99.90
4081;DHT22;2055;50.074;8.436;2022-12-18T09:20:47;-4.90;99.90
4081;DHT22;2055;50.074;8.436;2022-12-18T09:23:13;-4.90;99.90
4081;DHT22;2055;50.074;8.436;2022-12-18T09:25:38;-4.90;99.90
4081;DHT22;2055;50.074;8.436;2022-12-18T09:28:12;-4.80;99.90
4081;DHT22;2055;50.074;8.436;2022-12-18T09:30:39;-4.80;99.90
4081;DHT22;2055;50.074;8.436;2022-12-18T09:33:05;-4.70;99.90
4081;DHT22;2055;50.074;8.436;2022-12-18T09:35:31;-4.60;99.90
4081;DHT22;2055;50.074;8.436;2022-12-18T09:37:56;-4.60;99.90
4081;DHT22;2055;50.074;8.436;2022-12-18T09:40:25;-4.60;99.90
4081;DHT22;2055;50.074;8.436;2022-12-18T09:42:55;-4.50;99.90
4081;DHT22;2055;50.074;8.436;2022-12-18T09:45:22;-4.40;99.90
4081;DHT22;2055;50.074;8.436;2022-12-18T09:47:50;-4.30;99.90
4081;DHT22;2055;50.074;8.436;2022-12-18T09:50:27;-4.00;99.90
4081;DHT22;2055;50.074;8.436;2022-12-18T09:52:57;-4.10;99.90
4081;DHT22;2055;50.074;8.436;2022-12-18T09:58:02;-4.00;99.90
4081;DHT22;2055;50.074;8.436;2022-12-18T10:00:30;-4.00;99.90
4081;DHT22;2055;50.074;8.436;2022-12-18T10:03:02;-4.00;99.90
4081;DHT22;2055;50.074;8.436;2022-12-18T10:06:01;-4.10;99.90
4081;DHT22;2055;50.074;8.436;2022-12-18T10:08:42;-4.20;99.90
4081;DHT22;2055;50.074;8.436;2022-12-18T10:11:32;-4.10;99.90
4081;DHT22;2055;50.074;8.436;2022-12-18T10:14:20;-4.00;99.90
4081;DHT22;2055;50.074;8.436;2022-12-18T10:17:02;-4.00;99.90
4081;DHT22;2055;50.074;8.436;2022-12-18T10:19:41;-3.90;99.90
4081;DHT22;2055;50.074;8.436;2022-12-18T10:22:20;-3.70;99.90
4081;DHT22;2055;50.074;8.436;2022-12-18T10:25:01;-3.70;99.90
4081;DHT22;2055;50.074;8.436;2022-12-18T10:27:29;-3.50;99.90
4081;DHT22;2055;50.074;8.436;2022-12-18T10:29:56;-3.10;99.90
4081;DHT22;2055;50.074;8.436;2022-12-18T10:32:25;-3.00;99.90
4081;DHT22;2055;50.074;8.436;2022-12-18T10:34:54;-3.00;99.90
4081;DHT22;2055;50.074;8.436;2022-12-18T10:37:22;-2.80;99.90
4081;DHT22;2055;50.074;8.436;2022-12-18T10:40:07;-2.80;99.90
4081;DHT22;2055;50.074;8.436;2022-12-18T10:42:33;-2.90;99.90
4081;DHT22;2055;50.074;8.436;2022-12-18T10:45:11;-2.80;99.90
4081;DHT22;2055;50.074;8.436;2022-12-18T10:47:42;-2.80;99.90
4081;DHT22;2055;50.074;8.436;2022-12-18T10:50:34;-2.90;99.90
4081;DHT22;2055;50.074;8.436;2022-12-18T10:53:03;-2.90;99.90
4081;DHT22;2055;50.074;8.436;2022-12-18T10:55:38;-3.00;99.90
4081;DHT22;2055;50.074;8.436;2022-12-18T10:58:28;-3.20;99.90
4081;DHT22;2055;50.074;8.436;2022-12-18T11:03:32;-3.00;99.90
4081;DHT22;2055;50.074;8.436;2022-12-18T11:06:10;-2.70;99.90
4081;DHT22;2055;50.074;8.436;2022-12-18T11:08:36;-2.50;99.90
4081;DHT22;2055;50.074;8.436;2022-12-18T11:11:02;-2.60;99.90
4081;DHT22;2055;50.074;8.436;2022-12-18T11:13:29;-2.40;99.90
4081;DHT22;2055;50.074;8.436;2022-12-18T11:15:56;-2.50;99.90
4081;DHT22;2055;50.074;8.436;2022-12-18T11:18:31;-0.30;99.90
4081;DHT22;2055;50.074;8.436;2022-12-18T11:20:59;-2.10;99.90
4081;DHT22;2055;50.074;8.436;2022-12-18T11:23:26;-2.20;99.90
4081;DHT22;2055;50.074;8.436;2022-12-18T11:25:57;-2.40;99.90
4081;DHT22;2055;50.074;8.436;2022-12-18T11:28:40;-2.70;99.90
4081;DHT22;2055;50.074;8.436;2022-12-18T11:31:28;-2.60;99.90
4081;DHT22;2055;50.074;8.436;2022-12-18T11:34:13;-2.70;99.90
4081;DHT22;2055;50.074;8.436;2022-12-18T11:36:44;-3.00;99.90
4081;DHT22;2055;50.074;8.436;2022-12-18T11:42:20;-3.10;99.90
4081;DHT22;2055;50.074;8.436;2022-12-18T11:50:21;-3.10;99.90
4081;DHT22;2055;50.074;8.436;2022-12-18T11:52:49;-3.00;99.90
4081;DHT22;2055;50.074;8.436;2022-12-18T11:55:22;-3.10;99.90
4081;DHT22;2055;50.074;8.436;2022-12-18T11:58:10;-3.00;99.90
4081;DHT22;2055;50.074;8.436;2022-12-18T12:00:54;-2.80;99.90
4081;DHT22;2055;50.074;8.436;2022-12-18T12:03:24;-2.90;99.90
4081;DHT22;2055;50.074;8.436;2022-12-18T12:14:44;-2.90;99.90
4081;DHT22;2055;50.074;8.436;2022-12-18T12:20:23;-2.60;99.90
4081;DHT22;2055;50.074;8.436;2022-12-18T12:23:14;-2.70;99.90
4081;DHT22;2055;50.074;8.436;2022-12-18T12:25:45;-2.70;99.90
4081;DHT22;2055;50.074;8.436;2022-12-18T12:31:06;-2.90;99.90
4081;DHT22;2055;50.074;8.436;2022-12-18T12:33:46;-3.00;99.90
4081;DHT22;2055;50.074;8.436;2022-12-18T12:36:23;-3.10;99.90
4081;DHT22;2055;50.074;8.436;2022-12-18T12:38:58;-3.10;99.90
4081;DHT22;2055;50.074;8.436;2022-12-18T12:41:30;-3.00;99.90
4081;DHT22;2055;50.074;8.436;2022-12-18T12:44:21;-2.90;99.90
4081;DHT22;2055;50.074;8.436;2022-12-18T12:46:47;-3.00;99.90
4081;DHT22;2055;50.074;8.436;2022-12-18T12:49:21;-3.00;99.90
4081;DHT22;2055;50.074;8.436;2022-12-18T12:52:00;-2.90;99.90
4081;DHT22;2055;50.074;8.436;2022-12-18T12:54:31;-2.80;99.90
4081;DHT22;2055;50.074;8.436;2022-12-18T12:57:21;-2.70;99.90
4081;DHT22;2055;50.074;8.436;2022-12-18T13:00:16;-2.60;99.90
4081;DHT22;2055;50.074;8.436;2022-12-18T13:05:30;-2.70;99.90
4081;DHT22;2055;50.074;8.436;2022-12-18T13:08:03;-2.70;99.90
4081;DHT22;2055;50.074;8.436;2022-12-18T13:10:40;-2.80;99.90
4081;DHT22;2055;50.074;8.436;2022-12-18T13:13:10;-2.50;99.90
4081;DHT22;2055;50.074;8.436;2022-12-18T13:18:25;-2.50;99.90
4081;DHT22;2055;50.074;8.436;2022-12-18T13:26:28;-2.80;99.90
4081;DHT22;2055;50.074;8.436;2022-12-18T13:31:15;-2.50;99.90
4081;DHT22;2055;50.074;8.436;2022-12-18T13:34:17;-3.00;99.90
4081;DHT22;2055;50.074;8.436;2022-12-18T13:36:43;-3.00;99.90
4081;DHT22;2055;50.074;8.436;2022-12-18T13:41:45;-2.90;99.90
4081;DHT22;2055;50.074;8.436;2022-12-18T13:46:56;-3.00;99.90
4081;DHT22;2055;50.074;8.436;2022-12-18T13:51:53;-3.10;99.90
4081;DHT22;2055;50.074;8.436;2022-12-18T13:56:46;-3.00;99.90
4081;DHT22;2055;50.074;8.436;2022-12-18T13:59:18;-3.00;99.90
4081;DHT22;2055;50.074;8.436;2022-12-18T14:02:07;-3.00;99.90
4081;DHT22;2055;50.074;8.436;2022-12-18T14:04:37;-3.10;99.90
4081;DHT22;2055;50.074;8.436;2022-12-18T14:07:04;-3.10;99.90
4081;DHT22;2055;50.074;8.436;2022-12-18T14:09:35;-3.00;99.90
4081;DHT22;2055;50.074;8.436;2022-12-18T14:12:01;-3.10;99.90
4081;DHT22;2055;50.074;8.436;2022-12-18T14:14:47;-3.10;99.90
4081;DHT22;2055;50.074;8.436;2022-12-18T14:17:14;-3.20;99.90
4081;DHT22;2055;50.074;8.436;2022-12-18T14:19:49;-3.20;99.90
4081;DHT22;2055;50.074;8.436;2022-12-18T14:22:20;-3.20;99.90
4081;DHT22;2055;50.074;8.436;2022-12-18T14:24:47;-3.20;99.90
4081;DHT22;2055;50.074;8.436;2022-12-18T14:27:29;-3.20;99.90
4081;DHT22;2055;50.074;8.436;2022-12-18T14:29:55;-3.20;99.90
4081;DHT22;2055;50.074;8.436;2022-12-18T14:32:20;-3.20;99.90
4081;DHT22;2055;50.074;8.436;2022-12-18T14:34:47;-3.20;99.90
4081;DHT22;2055;50.074;8.436;2022-12-18T14:37:15;-3.30;99.90
4081;DHT22;2055;50.074;8.436;2022-12-18T14:39:51;-3.20;99.90
4081;DHT22;2055;50.074;8.436;2022-12-18T14:42:17;-3.30;99.90
4081;DHT22;2055;50.074;8.436;2022-12-18T14:44:42;-3.30;99.90
4081;DHT22;2055;50.074;8.436;2022-12-18T14:47:14;-3.30;99.90
4081;DHT22;2055;50.074;8.436;2022-12-18T14:49:41;-3.50;99.90
4081;DHT22;2055;50.074;8.436;2022-12-18T14:52:27;-3.30;99.90
4081;DHT22;2055;50.074;8.436;2022-12-18T14:54:54;-3.30;99.90
4081;DHT22;2055;50.074;8.436;2022-12-18T14:57:25;-3.30;99.90
4081;DHT22;2055;50.074;8.436;2022-12-18T14:59:55;-3.40;99.90
4081;DHT22;2055;50.074;8.436;2022-12-18T15:02:28;-3.40;99.90
4081;DHT22;2055;50.074;8.436;2022-12-18T15:05:02;-3.40;99.90
4081;DHT22;2055;50.074;8.436;2022-12-18T15:07:43;-3.50;99.90
4081;DHT22;2055;50.074;8.436;2022-12-18T15:13:07;-3.60;99.90
4081;DHT22;2055;50.074;8.436;2022-12-18T15:20:24;-3.60;99.90
4081;DHT22;2055;50.074;8.436;2022-12-18T15:22:50;-3.60;99.90
4081;DHT22;2055;50.074;8.436;2022-12-18T15:25:32;-3.50;99.90
4081;DHT22;2055;50.074;8.436;2022-12-18T15:27:59;-3.60;99.90
4081;DHT22;2055;50.074;8.436;2022-12-18T15:30:25;-3.60;99.90
4081;DHT22;2055;50.074;8.436;2022-12-18T15:32:52;-3.60;99.90
4081;DHT22;2055;50.074;8.436;2022-12-18T15:35:21;-3.60;99.90
4081;DHT22;2055;50.074;8.436;2022-12-18T15:37:48;-3.60;99.90
4081;DHT22;2055;50.074;8.436;2022-12-18T15:40:23;-3.70;99.90
4081;DHT22;2055;50.074;8.436;2022-12-18T15:42:51;-3.70;99.90
4081;DHT22;2055;50.074;8.436;2022-12-18T15:45:37;-3.60;99.90
4081;DHT22;2055;50.074;8.436;2022-12-18T15:48:15;-3.60;99.90
4081;DHT22;2055;50.074;8.436;2022-12-18T15:50:43;-3.60;99.90
4081;DHT22;2055;50.074;8.436;2022-12-18T15:53:08;-3.60;99.90
4081;DHT22;2055;50.074;8.436;2022-12-18T15:55:34;-3.60;99.90
4081;DHT22;2055;50.074;8.436;2022-12-18T15:58:18;-3.60;99.90
4081;DHT22;2055;50.074;8.436;2022-12-18T16:00:45;-3.60;99.90
4081;DHT22;2055;50.074;8.436;2022-12-18T16:03:10;-3.60;99.90
4081;DHT22;2055;50.074;8.436;2022-12-18T16:05:36;-3.60;99.90
4081;DHT22;2055;50.074;8.436;2022-12-18T16:08:02;-3.60;99.90
4081;DHT22;2055;50.074;8.436;2022-12-18T16:10:27;-3.60;99.90
4081;DHT22;2055;50.074;8.436;2022-12-18T16:12:53;-3.60;99.90
4081;DHT22;2055;50.074;8.436;2022-12-18T16:15:19;-2.10;99.90
4081;DHT22;2055;50.074;8.436;2022-12-18T16:17:46;-3.60;99.90
4081;DHT22;2055;50.074;8.436;2022-12-18T16:20:14;-3.60;99.90
4081;DHT22;2055;50.074;8.436;2022-12-18T16:22:41;-3.20;99.90
4081;DHT22;2055;50.074;8.436;2022-12-18T16:25:14;-3.60;99.90
4081;DHT22;2055;50.074;8.436;2022-12-18T16:27:41;-3.60;99.90
4081;DHT22;2055;50.074;8.436;2022-12-18T16:30:15;-6.10;99.90
4081;DHT22;2055;50.074;8.436;2022-12-18T16:32:41;-3.60;99.90
4081;DHT22;2055;50.074;8.436;2022-12-18T16:35:10;-3.50;99.90
4081;DHT22;2055;50.074;8.436;2022-12-18T16:37:36;-3.50;99.90
4081;DHT22;2055;50.074;8.436;2022-12-18T16:40:01;-3.50;99.90
4081;DHT22;2055;50.074;8.436;2022-12-18T16:42:27;-3.50;99.90
4081;DHT22;2055;50.074;8.436;2022-12-18T16:44:52;-3.20;99.90
4081;DHT22;2055;50.074;8.436;2022-12-18T16:47:18;-3.40;99.90
4081;DHT22;2055;50.074;8.436;2022-12-18T16:49:44;-3.30;99.90
4081;DHT22;2055;50.074;8.436;2022-12-18T16:52:10;-3.40;99.90
4081;DHT22;2055;50.074;8.436;2022-12-18T16:54:36;-3.40;99.90
4081;DHT22;2055;50.074;8.436;2022-12-18T16:57:02;-3.40;99.90
4081;DHT22;2055;50.074;8.436;2022-12-18T16:59:29;-3.40;99.90
4081;DHT22;2055;50.074;8.436;2022-12-18T17:01:55;-3.30;99.90
4081;DHT22;2055;50.074;8.436;2022-12-18T17:04:21;-3.30;99.90
4081;DHT22;2055;50.074;8.436;2022-12-18T17:06:47;-3.30;99.90
4081;DHT22;2055;50.074;8.436;2022-12-18T17:09:17;-3.30;99.90
4081;DHT22;2055;50.074;8.436;2022-12-18T17:11:45;-3.30;99.90
4081;DHT22;2055;50.074;8.436;2022-12-18T17:14:16;-3.20;99.90
4081;DHT22;2055;50.074;8.436;2022-12-18T17:16:42;-3.20;99.90
4081;DHT22;2055;50.074;8.436;2022-12-18T17:19:08;-3.20;99.90
4081;DHT22;2055;50.074;8.436;2022-12-18T17:21:34;-3.20;99.90
4081;DHT22;2055;50.074;8.436;2022-12-18T17:24:00;-3.20;99.90
4081;DHT22;2055;50.074;8.436;2022-12-18T17:26:26;-3.20;99.90
4081;DHT22;2055;50.074;8.436;2022-12-18T17:28:52;-3.20;99.90
4081;DHT22;2055;50.074;8.436;2022-12-18T17:31:19;-3.10;99.90
4081;DHT22;2055;50.074;8.436;2022-12-18T17:33:46;-3.10;99.90
4081;DHT22;2055;50.074;8.436;2022-12-18T17:36:12;-3.10;99.90